Impacts METAR Board
IDs:

KSTL - St Louis/Lambert Int, MO, US

Updated at: 0500 UTC 25 May 2018
Potential Impact None Slight Moderate High
Time 24/17Z 24/18Z 24/19Z 24/20Z 24/21Z 24/22Z 24/23Z 25/00Z 25/01Z 25/02Z 25/03Z 25/04Z 25/05Z
Temp84 85 86 87 87 87 87 85 83 82 81 80 79
Dewpt62 62 61 62 61 59 62 62 62 60 60 60 61
Altim30.14 30.12 30.10 30.09 30.07 30.05 30.03 30.02 30.02 30.03 30.03 30.04 30.03
VIS10 10 10 10 10 10 10 10 10 10 10 10 10
CIG250 250 250 250 250 -- -- -- -- -- -- -- --
CoverBKNBKNBKNBKNBKNSCTFEWFEWFEWFEWFEWFEWFEW
FltCatVFRVFRVFRVFRVFRVFRVFRVFRVFRVFRVFRVFRVFR
WX--------------------------
WDir120170012012080120110120160160160160
WSpd8 6 3 9 10 5 10 9 8 7 5 6 5
WGst-- -- -- -- -- -- -- -- -- -- -- -- --
Raw hourly METARs
KSTL 241651Z 12008KT 10SM SCT048 BKN250 29/17 A3014 RMK AO2 SLP193 T02890167
KSTL 241751Z 17006KT 10SM SCT050 BKN250 29/17 A3012 RMK AO2 SLP187 T02940167 10294 20211 58012
KSTL 241851Z VRB03KT 10SM SCT055 BKN250 30/16 A3010 RMK AO2 SLP181 T03000161
KSTL 241951Z 12009KT 10SM SCT060 BKN250 31/17 A3009 RMK AO2 SLP177 T03060167
KSTL 242051Z 12010KT 10SM SCT065 BKN250 31/16 A3007 RMK AO2 SLP171 T03060161 58016
KSTL 242151Z 08005KT 10SM FEW065 SCT250 31/15 A3005 RMK AO2 SLP165 T03060150
KSTL 242251Z 12010KT 10SM FEW065 FEW250 31/17 A3003 RMK AO2 SLP158 T03060167
KSTL 242351Z 11009KT 10SM FEW065 FEW250 29/17 A3002 RMK AO2 SLP155 T02940167 10311 20294 56016
KSTL 250051Z 12008KT 10SM FEW050 FEW250 28/17 A3002 RMK AO2 SLP155 CB DSNT SW AND W MOV N T02830167
KSTL 250151Z 16007KT 10SM FEW060 FEW250 28/16 A3003 RMK AO2 SLP156 OCNL LTGIC DSNT SW CB DSNT SW MOV N T02780156
KSTL 250251Z 16005KT 10SM FEW250 27/16 A3003 RMK AO2 SLP157 T02720156 53003
KSTL 250351Z 16006KT 10SM FEW250 27/16 A3004 RMK AO2 SLP159 T02670156
KSTL 250451Z 16005KT 10SM FEW250 26/16 A3003 RMK AO2 SLP156 T02610161



Page loaded:  05:08 UTC  |   10:08 PM Pacific  |   11:08 PM Mountain  |   12:08 AM Central  |   01:08 AM Eastern

 

ADVISORIES

FORECASTS

FORECASTS

OBSERVATIONS

USER TOOLS

ABOUT US